createdAt,value
2022-11-07T20:48:06.282Z,139.68
2022-11-07T20:50:12.898Z,148.38
2022-11-07T20:52:19.215Z,148.50
2022-11-07T20:54:29.609Z,155.70
2022-11-07T20:56:35.741Z,163.10
2022-11-07T20:58:45.077Z,159.28
2022-11-07T21:00:55.239Z,153.49
2022-11-07T21:03:05.529Z,152.79
2022-11-07T21:05:20.288Z,149.58
2022-11-07T21:07:28.738Z,152.81
2022-11-07T21:09:41.622Z,148.81
2022-11-07T21:11:50.755Z,154.44
2022-11-07T21:13:59.777Z,152.88
2022-11-07T21:16:11.772Z,155.60
2022-11-07T21:18:18.922Z,152.77
2022-11-07T21:20:26.954Z,156.82
2022-11-07T21:22:37.403Z,156.89
2022-11-07T21:24:47.145Z,155.67
2022-11-07T21:26:56.749Z,170.61
2022-11-07T21:29:06.736Z,176.33
2022-11-07T21:31:16.495Z,174.25
2022-11-07T21:33:27.369Z,174.78
2022-11-07T21:35:44.832Z,168.40
2022-11-07T21:37:53.548Z,168.23
2022-11-07T21:40:10.208Z,181.25
2022-11-07T21:42:26.091Z,194.18
2022-11-07T21:44:37.020Z,204.47
2022-11-07T21:46:45.499Z,245.82
2022-11-07T21:48:52.761Z,266.69
2022-11-07T21:51:10.846Z,273.05
2022-11-07T21:53:18.515Z,270.89
2022-11-07T21:55:27.976Z,254.43
2022-11-07T21:57:34.447Z,254.89
2022-11-07T21:59:42.856Z,229.18
2022-11-07T22:01:50.262Z,224.16
2022-11-07T22:04:06.858Z,212.69
2022-11-07T22:06:19.819Z,191.50
2022-11-07T22:08:26.741Z,181.29
2022-11-07T22:10:36.452Z,166.23
2022-11-07T22:12:43.807Z,152.51
2022-11-07T22:14:51.106Z,144.04
2022-11-07T22:16:59.825Z,139.40
2022-11-07T22:19:15.249Z,140.69
2022-11-07T22:21:24.793Z,151.92
2022-11-07T22:23:35.407Z,158.00
2022-11-07T22:25:45.505Z,167.60
2022-11-07T22:27:52.899Z,164.18
2022-11-07T22:29:59.571Z,152.92
2022-11-07T22:32:07.362Z,148.18
2022-11-07T22:34:13.958Z,137.89
2022-11-07T22:36:25.824Z,133.65
2022-11-07T22:38:36.692Z,150.54
2022-11-07T22:40:50.719Z,144.70
2022-11-07T22:42:57.355Z,131.52
2022-11-07T22:45:05.164Z,124.64
2022-11-07T22:47:11.723Z,121.48
2022-11-07T22:49:18.298Z,112.95
2022-11-07T22:51:28.809Z,113.72
2022-11-07T22:53:36.279Z,122.72
2022-11-07T22:55:43.937Z,118.49
2022-11-07T22:57:54.951Z,113.77
2022-11-07T23:00:19.734Z,116.75
2022-11-07T23:02:27.502Z,125.97
2022-11-07T23:04:35.093Z,118.50
2022-11-07T23:06:46.073Z,124.84
2022-11-07T23:08:54.729Z,129.73
2022-11-07T23:13:40.176Z,166.28
2022-11-07T23:15:46.797Z,162.89
2022-11-07T23:17:54.390Z,154.95
2022-11-07T23:20:01.984Z,154.76
2022-11-07T23:22:10.288Z,151.65
2022-11-07T23:24:21.008Z,153.36
2022-11-07T23:26:34.259Z,157.29
2022-11-07T23:28:45.354Z,175.65
2022-11-07T23:30:55.406Z,169.25
2022-11-07T23:33:02.018Z,164.29
2022-11-07T23:35:10.124Z,151.81
2022-11-07T23:37:18.900Z,151.98
2022-11-07T23:39:26.957Z,152.89
2022-11-07T23:41:33.469Z,149.26
2022-11-07T23:43:48.532Z,148.69
2022-11-07T23:46:11.860Z,149.02
2022-11-07T23:48:31.193Z,150.31
2022-11-07T23:50:50.666Z,144.97
2022-11-07T23:52:57.552Z,148.25
2022-11-07T23:55:16.217Z,149.43
2022-11-07T23:57:23.806Z,150.10
2022-11-07T23:59:45.170Z,153.88
